WetterOnline ( https://www.wetteronline.de )

Wetter aktuell Heidelberg

Aktuelles Wetter: Mannheim (100m)

6-stündlich | Neueste Meldungen
Ortszeit Temperatur Wetter
Sa, 12.06. 20:00 22.6° C wolkenlos
Sa, 12.06. 14:00 26.1° C wolkig
Sa, 12.06. 8:00 19.5° C leicht bewölkt
Sa, 12.06. 2:00 18.6° C leicht bewölkt
Fr, 11.06. 20:00 26.6° C leicht bewölkt
Fr, 11.06. 14:00 27.6° C leicht bewölkt
Fr, 11.06. 8:00 18.8° C wolkenlos
Fr, 11.06. 2:00 16.6° C wolkig
Ortszeit Temperatur Wetter
So, 13.06. 0:00 18.5° C wolkig
Sa, 12.06. 23:30 18.5° C wolkig
Sa, 12.06. 23:20 18.5° C wolkig
Sa, 12.06. 23:10 18.7° C wolkig
Sa, 12.06. 23:00 18.9° C wolkig
Sa, 12.06. 22:50 18.9° C wolkig
Sa, 12.06. 22:30 19.4° C wolkenlos
Sa, 12.06. 22:00 19.9° C wolkenlos
Sa, 12.06. 21:30 20.9° C wolkenlos
Sa, 12.06. 21:00 22.0° C leicht bewölkt
Ortszeit Relative Feuchte Sichtweite
Sa, 12.06. 20:00 58% 55 km
Sa, 12.06. 14:00 47% 55 km
Sa, 12.06. 8:00 81% 30 km
Sa, 12.06. 2:00 83% 35 km
Fr, 11.06. 20:00 50% 55 km
Fr, 11.06. 14:00 38% 45 km
Fr, 11.06. 8:00 82% 21 km
Fr, 11.06. 2:00 88% 24 km
Ortszeit Relative Feuchte Sichtweite
So, 13.06. 0:00 63% 50 km
Sa, 12.06. 23:30 66% 40 km
Sa, 12.06. 23:20 66% -
Sa, 12.06. 23:10 66% -
Sa, 12.06. 23:00 66% 40 km
Sa, 12.06. 22:50 66% -
Sa, 12.06. 22:30 62% 50 km
Sa, 12.06. 22:00 59% 45 km
Sa, 12.06. 21:30 55% 50 km
Sa, 12.06. 21:00 52% 45 km
Ortszeit Niederschlagsmenge Niederschlagsart
Sa, 12.06. 20:00 0.0 l/m2 in 12 Std. -
Sa, 12.06. 14:00 0.0 l/m2 in 6 Std. -
Sa, 12.06. 8:00 0.0 l/m2 in 12 Std. -
Sa, 12.06. 2:00 0.0 l/m2 in 6 Std. -
Fr, 11.06. 20:00 0.0 l/m2 in 12 Std. -
Fr, 11.06. 14:00 0.0 l/m2 in 6 Std. -
Fr, 11.06. 8:00 0.0 l/m2 in 12 Std. -
Fr, 11.06. 2:00 0.0 l/m2 in 6 Std. -
Ortszeit Niederschlagsmenge Niederschlagsart
So, 13.06. 0:00 0.0 l/m2 in 1 Std. -
Sa, 12.06. 23:30 0.0 l/m2 in 1 Std. -
Sa, 12.06. 23:20 keine Meldung -
Sa, 12.06. 23:10 keine Meldung -
Sa, 12.06. 23:00 0.0 l/m2 in 1 Std. -
Sa, 12.06. 22:50 keine Meldung -
Sa, 12.06. 22:30 0.0 l/m2 in 1 Std. -
Sa, 12.06. 22:00 0.0 l/m2 in 1 Std. -
Sa, 12.06. 21:30 0.0 l/m2 in 1 Std. -
Sa, 12.06. 21:00 0.0 l/m2 in 1 Std. -
Ortszeit Stärke Spitze Richtung
km/h Bft. km/h Grad Sektor
Sa, 12.06. 20:00 11 2 40 330° NW
Sa, 12.06. 14:00 14 3 29 300° NW
Sa, 12.06. 8:00 7 2 11 160° S
Sa, 12.06. 2:00 6 1 11 50° NO
Fr, 11.06. 20:00 6 1 24 120° SO
Fr, 11.06. 14:00 7 2 19 300° NW
Fr, 11.06. 8:00 2 1 7 320° NW
Fr, 11.06. 2:00 4 1 18 60° NO
Ortszeit Stärke Spitze Richtung
km/h Bft. km/h Grad Sektor
So, 13.06. 0:00 11 2 22 330° NW
Sa, 12.06. 23:30 11 2 14 320° NW
Sa, 12.06. 23:20 11 2 - 320° NW
Sa, 12.06. 23:10 9 2 - 320° NW
Sa, 12.06. 23:00 11 2 22 330° NW
Sa, 12.06. 22:50 11 2 - 330° NW
Sa, 12.06. 22:30 11 2 18 330° NW
Sa, 12.06. 22:00 11 2 25 320° NW
Sa, 12.06. 21:30 11 2 25 320° NW
Sa, 12.06. 21:00 14 3 25 330° NW
Ortszeit Untergrenze Bedeckung Gattung
total tief tief mittel hoch
Sa, 12.06. 20:00 - 0/8 0/8 - - -
Sa, 12.06. 14:00 1500 m 6/8 6/8 - - -
Sa, 12.06. 8:00 9000 m 7/8 0/8 - - -
Sa, 12.06. 2:00 9000 m 5/8 0/8 - - -
Fr, 11.06. 20:00 1800 m 3/8 1/8 - - -
Fr, 11.06. 14:00 1500 m 2/8 2/8 - - -
Fr, 11.06. 8:00 - 0/8 0/8 - - -
Fr, 11.06. 2:00 9000 m 7/8 0/8 - - -
Ortszeit Bedeckungsgrad in Achtel und Wolkenuntergrenze
So, 13.06. 0:00 2(1500m) 8(10500m) 8(12000m)
Sa, 12.06. 23:30 4(10500m) 6(10500m) 7(12000m)
Sa, 12.06. 23:20 4(10500m) 6(10500m) 7(12000m)
Sa, 12.06. 23:10 2(10500m) 5(10500m) 7(12000m)
Sa, 12.06. 23:00 7(10500m) 8(10500m)
Sa, 12.06. 22:50 7(10500m)
Sa, 12.06. 22:30 4(10500m)
Sa, 12.06. 22:00 keine Wolken
Sa, 12.06. 21:30 keine Wolken
Sa, 12.06. 21:00 1(1800m) 4(9000m)
Ortszeit Luftdruck NN (hPa) Tendenz (hPa in 3 Std.)
Sa, 12.06. 20:00 1021 + 1,5
Sa, 12.06. 14:00 1018 - 0,4
Sa, 12.06. 8:00 1019 + 0,7
Sa, 12.06. 2:00 1019 + 0,5
Fr, 11.06. 20:00 1017 - 0,2
Fr, 11.06. 14:00 1018 - 0,8
Fr, 11.06. 8:00 1019 + 0,5
Fr, 11.06. 2:00 1019 0,0
Ortszeit Luftdruck NN (hPa) Tendenz (hPa in 3 Std.)
So, 13.06. 0:00 1023 + 2,0
Sa, 12.06. 23:30 1023 + 1,9
Sa, 12.06. 23:20 1023 keine Meldung
Sa, 12.06. 23:10 1023 keine Meldung
Sa, 12.06. 23:00 1022 + 1,7
Sa, 12.06. 22:50 1022 keine Meldung
Sa, 12.06. 22:30 1022 + 1,7
Sa, 12.06. 22:00 1022 + 1,3
Sa, 12.06. 21:30 1021 + 1,2
Sa, 12.06. 21:00 1021 + 1,0
Ortszeit Schneehöhe (cm)
Sa, 12.06. 20:00 -
Sa, 12.06. 14:00 -
Sa, 12.06. 8:00 -
Sa, 12.06. 2:00 -
Fr, 11.06. 20:00 -
Fr, 11.06. 14:00 -
Fr, 11.06. 8:00 -
Fr, 11.06. 2:00 -
Ortszeit Schneehöhe (cm)
So, 13.06. 0:00 -
Sa, 12.06. 23:30 -
Sa, 12.06. 23:20 -
Sa, 12.06. 23:10 -
Sa, 12.06. 23:00 -
Sa, 12.06. 22:50 -
Sa, 12.06. 22:30 -
Sa, 12.06. 22:00 -
Sa, 12.06. 21:30 -
Sa, 12.06. 21:00 -
Link zu dieser Seite / Seite empfehlen

Das Wetter in ...